sensor_id;sensor_type;location;lat;lon;timestamp;P1;durP1;ratioP1;P2;durP2;ratioP2
9712;SDS011;4895;50.926;6.870;2023-07-24T00:01:11;8.87;;;4.17;;
9712;SDS011;4895;50.926;6.870;2023-07-24T00:03:37;6.80;;;4.80;;
9712;SDS011;4895;50.926;6.870;2023-07-24T00:06:02;6.13;;;4.23;;
9712;SDS011;4895;50.926;6.870;2023-07-24T00:08:27;15.60;;;9.77;;
9712;SDS011;4895;50.926;6.870;2023-07-24T00:10:53;20.13;;;10.63;;
9712;SDS011;4895;50.926;6.870;2023-07-24T00:13:18;16.50;;;11.77;;
9712;SDS011;4895;50.926;6.870;2023-07-24T00:15:43;16.23;;;11.70;;
9712;SDS011;4895;50.926;6.870;2023-07-24T00:18:09;16.93;;;11.03;;
9712;SDS011;4895;50.926;6.870;2023-07-24T00:20:34;12.50;;;8.40;;
9712;SDS011;4895;50.926;6.870;2023-07-24T00:22:59;13.50;;;7.80;;
9712;SDS011;4895;50.926;6.870;2023-07-24T00:25:25;9.60;;;5.50;;
9712;SDS011;4895;50.926;6.870;2023-07-24T00:27:50;7.97;;;5.43;;
9712;SDS011;4895;50.926;6.870;2023-07-24T00:30:15;10.83;;;5.37;;
9712;SDS011;4895;50.926;6.870;2023-07-24T00:32:40;11.20;;;5.80;;
9712;SDS011;4895;50.926;6.870;2023-07-24T00:35:06;12.77;;;4.90;;
9712;SDS011;4895;50.926;6.870;2023-07-24T00:37:32;8.07;;;4.57;;
9712;SDS011;4895;50.926;6.870;2023-07-24T00:39:57;9.50;;;5.27;;
9712;SDS011;4895;50.926;6.870;2023-07-24T00:42:22;9.20;;;4.70;;
9712;SDS011;4895;50.926;6.870;2023-07-24T00:44:48;6.50;;;4.73;;
9712;SDS011;4895;50.926;6.870;2023-07-24T00:47:13;7.87;;;4.50;;
9712;SDS011;4895;50.926;6.870;2023-07-24T00:49:38;5.40;;;4.13;;
9712;SDS011;4895;50.926;6.870;2023-07-24T00:52:04;10.27;;;4.60;;
9712;SDS011;4895;50.926;6.870;2023-07-24T00:54:30;5.53;;;4.50;;
9712;SDS011;4895;50.926;6.870;2023-07-24T00:56:56;8.43;;;4.60;;
9712;SDS011;4895;50.926;6.870;2023-07-24T00:59:21;10.60;;;4.43;;
9712;SDS011;4895;50.926;6.870;2023-07-24T01:01:47;8.03;;;5.37;;
9712;SDS011;4895;50.926;6.870;2023-07-24T01:04:13;7.80;;;4.93;;
9712;SDS011;4895;50.926;6.870;2023-07-24T01:06:38;7.80;;;4.30;;
9712;SDS011;4895;50.926;6.870;2023-07-24T01:09:04;9.43;;;4.63;;
9712;SDS011;4895;50.926;6.870;2023-07-24T01:11:33;9.00;;;4.70;;
9712;SDS011;4895;50.926;6.870;2023-07-24T01:14:04;7.07;;;4.40;;
9712;SDS011;4895;50.926;6.870;2023-07-24T01:16:38;7.07;;;4.50;;
9712;SDS011;4895;50.926;6.870;2023-07-24T01:19:11;8.87;;;4.87;;
9712;SDS011;4895;50.926;6.870;2023-07-24T01:27:43;13.80;;;4.77;;
9712;SDS011;4895;50.926;6.870;2023-07-24T01:30:08;8.83;;;4.50;;
9712;SDS011;4895;50.926;6.870;2023-07-24T01:32:34;18.43;;;5.00;;
9712;SDS011;4895;50.926;6.870;2023-07-24T01:35:00;10.27;;;5.10;;
9712;SDS011;4895;50.926;6.870;2023-07-24T01:37:25;11.30;;;5.00;;
9712;SDS011;4895;50.926;6.870;2023-07-24T01:39:51;8.90;;;4.97;;
9712;SDS011;4895;50.926;6.870;2023-07-24T01:42:17;9.67;;;4.80;;
9712;SDS011;4895;50.926;6.870;2023-07-24T01:44:43;13.77;;;4.67;;
9712;SDS011;4895;50.926;6.870;2023-07-24T01:47:08;8.40;;;5.03;;
9712;SDS011;4895;50.926;6.870;2023-07-24T01:49:33;8.13;;;4.87;;
9712;SDS011;4895;50.926;6.870;2023-07-24T01:51:59;8.50;;;4.93;;
9712;SDS011;4895;50.926;6.870;2023-07-24T01:54:24;10.27;;;4.80;;
9712;SDS011;4895;50.926;6.870;2023-07-24T01:56:49;10.03;;;4.60;;
9712;SDS011;4895;50.926;6.870;2023-07-24T01:59:15;8.73;;;5.40;;
9712;SDS011;4895;50.926;6.870;2023-07-24T02:01:40;10.73;;;5.23;;
9712;SDS011;4895;50.926;6.870;2023-07-24T02:04:06;9.00;;;5.47;;
9712;SDS011;4895;50.926;6.870;2023-07-24T02:06:31;9.77;;;5.10;;
9712;SDS011;4895;50.926;6.870;2023-07-24T02:08:56;7.43;;;5.13;;
9712;SDS011;4895;50.926;6.870;2023-07-24T02:11:21;6.30;;;4.43;;
9712;SDS011;4895;50.926;6.870;2023-07-24T02:13:47;6.67;;;4.43;;
9712;SDS011;4895;50.926;6.870;2023-07-24T02:16:12;9.80;;;4.47;;
9712;SDS011;4895;50.926;6.870;2023-07-24T02:18:38;9.30;;;4.87;;
9712;SDS011;4895;50.926;6.870;2023-07-24T02:21:07;6.73;;;4.30;;
9712;SDS011;4895;50.926;6.870;2023-07-24T02:23:33;8.27;;;5.03;;
9712;SDS011;4895;50.926;6.870;2023-07-24T02:25:58;11.60;;;4.70;;
9712;SDS011;4895;50.926;6.870;2023-07-24T02:28:23;11.17;;;5.40;;
9712;SDS011;4895;50.926;6.870;2023-07-24T02:30:49;10.80;;;5.27;;
9712;SDS011;4895;50.926;6.870;2023-07-24T02:33:16;12.23;;;5.63;;
9712;SDS011;4895;50.926;6.870;2023-07-24T02:35:41;9.60;;;5.53;;
9712;SDS011;4895;50.926;6.870;2023-07-24T02:38:07;10.60;;;5.53;;
9712;SDS011;4895;50.926;6.870;2023-07-24T02:40:33;9.70;;;5.30;;
9712;SDS011;4895;50.926;6.870;2023-07-24T02:42:58;10.90;;;5.20;;
9712;SDS011;4895;50.926;6.870;2023-07-24T02:45:23;16.80;;;6.33;;
9712;SDS011;4895;50.926;6.870;2023-07-24T02:47:48;9.73;;;5.30;;
9712;SDS011;4895;50.926;6.870;2023-07-24T02:50:14;7.67;;;4.93;;
9712;SDS011;4895;50.926;6.870;2023-07-24T02:52:39;10.60;;;5.00;;
9712;SDS011;4895;50.926;6.870;2023-07-24T02:55:04;9.47;;;5.00;;
9712;SDS011;4895;50.926;6.870;2023-07-24T02:57:30;11.67;;;5.73;;
9712;SDS011;4895;50.926;6.870;2023-07-24T02:59:55;7.67;;;4.80;;
9712;SDS011;4895;50.926;6.870;2023-07-24T03:02:20;10.03;;;5.57;;
9712;SDS011;4895;50.926;6.870;2023-07-24T03:04:46;9.70;;;5.70;;
9712;SDS011;4895;50.926;6.870;2023-07-24T03:07:11;11.60;;;5.33;;
9712;SDS011;4895;50.926;6.870;2023-07-24T03:09:36;13.03;;;6.30;;
9712;SDS011;4895;50.926;6.870;2023-07-24T03:12:02;9.77;;;5.30;;
9712;SDS011;4895;50.926;6.870;2023-07-24T03:14:27;16.00;;;5.20;;
9712;SDS011;4895;50.926;6.870;2023-07-24T03:16:52;7.40;;;4.93;;
9712;SDS011;4895;50.926;6.870;2023-07-24T03:19:18;12.40;;;5.50;;
9712;SDS011;4895;50.926;6.870;2023-07-24T03:21:45;8.83;;;5.20;;
9712;SDS011;4895;50.926;6.870;2023-07-24T03:24:10;10.30;;;5.53;;
9712;SDS011;4895;50.926;6.870;2023-07-24T03:26:35;10.53;;;5.80;;
9712;SDS011;4895;50.926;6.870;2023-07-24T03:29:01;9.80;;;5.20;;
9712;SDS011;4895;50.926;6.870;2023-07-24T03:31:26;7.23;;;4.83;;
9712;SDS011;4895;50.926;6.870;2023-07-24T03:33:51;9.10;;;5.30;;
9712;SDS011;4895;50.926;6.870;2023-07-24T03:36:16;8.10;;;5.40;;
9712;SDS011;4895;50.926;6.870;2023-07-24T03:38:42;9.27;;;5.90;;
9712;SDS011;4895;50.926;6.870;2023-07-24T03:41:07;14.80;;;5.67;;
9712;SDS011;4895;50.926;6.870;2023-07-24T03:43:32;14.63;;;5.20;;
9712;SDS011;4895;50.926;6.870;2023-07-24T03:45:57;8.50;;;5.10;;
9712;SDS011;4895;50.926;6.870;2023-07-24T03:48:23;10.43;;;5.33;;
9712;SDS011;4895;50.926;6.870;2023-07-24T03:50:49;15.87;;;6.13;;
9712;SDS011;4895;50.926;6.870;2023-07-24T03:53:15;11.97;;;5.10;;
9712;SDS011;4895;50.926;6.870;2023-07-24T03:55:41;11.80;;;6.17;;
9712;SDS011;4895;50.926;6.870;2023-07-24T03:58:06;9.20;;;5.23;;
9712;SDS011;4895;50.926;6.870;2023-07-24T04:00:31;8.37;;;4.87;;
9712;SDS011;4895;50.926;6.870;2023-07-24T04:02:57;10.80;;;6.03;;
9712;SDS011;4895;50.926;6.870;2023-07-24T04:05:22;9.20;;;5.80;;
9712;SDS011;4895;50.926;6.870;2023-07-24T04:07:47;8.20;;;5.37;;
9712;SDS011;4895;50.926;6.870;2023-07-24T04:10:12;8.87;;;5.67;;
9712;SDS011;4895;50.926;6.870;2023-07-24T04:12:38;9.20;;;5.50;;
9712;SDS011;4895;50.926;6.870;2023-07-24T04:15:03;8.07;;;5.57;;
9712;SDS011;4895;50.926;6.870;2023-07-24T04:17:29;10.60;;;5.60;;
9712;SDS011;4895;50.926;6.870;2023-07-24T04:19:54;10.47;;;5.63;;
9712;SDS011;4895;50.926;6.870;2023-07-24T04:22:20;10.40;;;5.57;;
9712;SDS011;4895;50.926;6.870;2023-07-24T04:24:45;9.20;;;6.20;;
9712;SDS011;4895;50.926;6.870;2023-07-24T04:27:10;12.17;;;6.07;;
9712;SDS011;4895;50.926;6.870;2023-07-24T04:29:35;9.23;;;5.90;;
9712;SDS011;4895;50.926;6.870;2023-07-24T04:32:01;10.47;;;5.47;;
9712;SDS011;4895;50.926;6.870;2023-07-24T04:34:26;11.40;;;6.33;;
9712;SDS011;4895;50.926;6.870;2023-07-24T04:36:51;8.57;;;5.50;;
9712;SDS011;4895;50.926;6.870;2023-07-24T04:39:17;10.77;;;5.83;;
9712;SDS011;4895;50.926;6.870;2023-07-24T04:41:42;7.60;;;6.00;;
9712;SDS011;4895;50.926;6.870;2023-07-24T04:44:07;10.93;;;6.13;;
9712;SDS011;4895;50.926;6.870;2023-07-24T04:46:32;9.33;;;5.13;;
9712;SDS011;4895;50.926;6.870;2023-07-24T04:48:58;8.67;;;5.40;;
9712;SDS011;4895;50.926;6.870;2023-07-24T04:51:23;9.77;;;5.93;;
9712;SDS011;4895;50.926;6.870;2023-07-24T04:53:48;9.33;;;6.10;;
9712;SDS011;4895;50.926;6.870;2023-07-24T04:56:13;20.90;;;6.33;;
9712;SDS011;4895;50.926;6.870;2023-07-24T04:58:39;9.47;;;5.60;;
9712;SDS011;4895;50.926;6.870;2023-07-24T05:01:04;10.50;;;5.80;;
9712;SDS011;4895;50.926;6.870;2023-07-24T05:03:31;10.10;;;5.43;;
9712;SDS011;4895;50.926;6.870;2023-07-24T05:05:57;13.87;;;6.40;;
9712;SDS011;4895;50.926;6.870;2023-07-24T05:08:22;12.60;;;6.10;;
9712;SDS011;4895;50.926;6.870;2023-07-24T05:10:53;10.60;;;6.07;;
9712;SDS011;4895;50.926;6.870;2023-07-24T05:13:19;11.10;;;6.40;;
9712;SDS011;4895;50.926;6.870;2023-07-24T05:15:44;14.23;;;5.57;;
9712;SDS011;4895;50.926;6.870;2023-07-24T05:18:10;12.03;;;5.70;;
9712;SDS011;4895;50.926;6.870;2023-07-24T05:20:35;13.80;;;6.70;;
9712;SDS011;4895;50.926;6.870;2023-07-24T05:23:00;15.30;;;6.10;;
9712;SDS011;4895;50.926;6.870;2023-07-24T05:25:26;10.57;;;6.40;;
9712;SDS011;4895;50.926;6.870;2023-07-24T05:27:51;11.00;;;6.30;;
9712;SDS011;4895;50.926;6.870;2023-07-24T05:30:16;8.93;;;5.53;;
9712;SDS011;4895;50.926;6.870;2023-07-24T05:32:41;9.47;;;5.73;;
9712;SDS011;4895;50.926;6.870;2023-07-24T05:35:07;14.40;;;6.30;;
9712;SDS011;4895;50.926;6.870;2023-07-24T05:37:32;10.70;;;6.20;;
9712;SDS011;4895;50.926;6.870;2023-07-24T05:39:57;12.47;;;6.60;;
9712;SDS011;4895;50.926;6.870;2023-07-24T05:42:23;10.87;;;6.20;;
9712;SDS011;4895;50.926;6.870;2023-07-24T05:44:48;10.67;;;5.50;;
9712;SDS011;4895;50.926;6.870;2023-07-24T05:47:13;10.03;;;6.10;;
9712;SDS011;4895;50.926;6.870;2023-07-24T05:49:38;9.83;;;6.27;;
9712;SDS011;4895;50.926;6.870;2023-07-24T05:52:04;12.33;;;5.80;;
9712;SDS011;4895;50.926;6.870;2023-07-24T05:54:29;11.40;;;6.00;;
9712;SDS011;4895;50.926;6.870;2023-07-24T05:56:54;15.63;;;6.00;;
9712;SDS011;4895;50.926;6.870;2023-07-24T05:59:20;8.57;;;5.47;;
9712;SDS011;4895;50.926;6.870;2023-07-24T06:01:45;12.97;;;5.70;;
9712;SDS011;4895;50.926;6.870;2023-07-24T06:04:10;10.37;;;6.10;;
9712;SDS011;4895;50.926;6.870;2023-07-24T06:06:35;16.53;;;6.80;;
9712;SDS011;4895;50.926;6.870;2023-07-24T06:09:01;12.73;;;6.30;;
9712;SDS011;4895;50.926;6.870;2023-07-24T06:11:28;8.20;;;5.03;;
9712;SDS011;4895;50.926;6.870;2023-07-24T06:13:53;9.20;;;5.87;;
9712;SDS011;4895;50.926;6.870;2023-07-24T06:16:18;8.20;;;5.03;;
9712;SDS011;4895;50.926;6.870;2023-07-24T06:18:44;11.20;;;6.00;;
9712;SDS011;4895;50.926;6.870;2023-07-24T06:21:09;10.90;;;5.10;;
9712;SDS011;4895;50.926;6.870;2023-07-24T06:23:35;9.23;;;5.60;;
9712;SDS011;4895;50.926;6.870;2023-07-24T06:26:00;8.10;;;5.30;;
9712;SDS011;4895;50.926;6.870;2023-07-24T06:28:25;14.30;;;5.97;;
9712;SDS011;4895;50.926;6.870;2023-07-24T06:30:54;11.40;;;5.43;;
9712;SDS011;4895;50.926;6.870;2023-07-24T06:33:19;11.13;;;5.60;;
9712;SDS011;4895;50.926;6.870;2023-07-24T06:35:46;9.60;;;4.80;;
9712;SDS011;4895;50.926;6.870;2023-07-24T06:38:12;9.27;;;4.60;;
9712;SDS011;4895;50.926;6.870;2023-07-24T06:40:37;12.63;;;5.80;;
9712;SDS011;4895;50.926;6.870;2023-07-24T06:43:02;7.73;;;4.47;;
9712;SDS011;4895;50.926;6.870;2023-07-24T06:45:28;8.77;;;4.60;;
9712;SDS011;4895;50.926;6.870;2023-07-24T06:47:53;10.33;;;4.10;;
9712;SDS011;4895;50.926;6.870;2023-07-24T06:50:18;7.80;;;4.40;;
9712;SDS011;4895;50.926;6.870;2023-07-24T06:52:44;8.60;;;5.27;;
9712;SDS011;4895;50.926;6.870;2023-07-24T06:55:09;7.83;;;4.43;;
9712;SDS011;4895;50.926;6.870;2023-07-24T06:57:34;9.10;;;4.77;;
9712;SDS011;4895;50.926;6.870;2023-07-24T06:59:59;8.27;;;4.47;;
9712;SDS011;4895;50.926;6.870;2023-07-24T07:02:25;6.97;;;4.17;;
9712;SDS011;4895;50.926;6.870;2023-07-24T07:04:50;7.30;;;3.70;;
9712;SDS011;4895;50.926;6.870;2023-07-24T07:07:15;6.23;;;3.90;;
9712;SDS011;4895;50.926;6.870;2023-07-24T07:09:40;6.93;;;4.20;;
9712;SDS011;4895;50.926;6.870;2023-07-24T07:12:06;6.37;;;3.90;;
9712;SDS011;4895;50.926;6.870;2023-07-24T07:14:31;11.83;;;4.40;;
9712;SDS011;4895;50.926;6.870;2023-07-24T07:16:57;7.90;;;4.47;;
9712;SDS011;4895;50.926;6.870;2023-07-24T07:19:22;8.53;;;4.50;;
9712;SDS011;4895;50.926;6.870;2023-07-24T07:21:48;9.67;;;4.33;;
9712;SDS011;4895;50.926;6.870;2023-07-24T07:24:13;5.93;;;3.90;;
9712;SDS011;4895;50.926;6.870;2023-07-24T07:26:38;5.90;;;4.30;;
9712;SDS011;4895;50.926;6.870;2023-07-24T07:29:03;7.27;;;3.97;;
9712;SDS011;4895;50.926;6.870;2023-07-24T07:31:29;6.27;;;4.13;;
9712;SDS011;4895;50.926;6.870;2023-07-24T07:33:54;8.93;;;4.47;;
9712;SDS011;4895;50.926;6.870;2023-07-24T07:36:19;9.23;;;4.07;;
9712;SDS011;4895;50.926;6.870;2023-07-24T07:38:47;5.97;;;4.33;;
9712;SDS011;4895;50.926;6.870;2023-07-24T07:41:12;5.73;;;3.73;;
9712;SDS011;4895;50.926;6.870;2023-07-24T07:43:37;5.90;;;4.23;;
9712;SDS011;4895;50.926;6.870;2023-07-24T07:46:03;5.20;;;3.73;;
9712;SDS011;4895;50.926;6.870;2023-07-24T07:48:29;11.70;;;4.40;;
9712;SDS011;4895;50.926;6.870;2023-07-24T07:50:54;8.50;;;4.27;;
9712;SDS011;4895;50.926;6.870;2023-07-24T07:53:19;8.93;;;4.00;;
9712;SDS011;4895;50.926;6.870;2023-07-24T07:55:45;8.07;;;4.23;;
9712;SDS011;4895;50.926;6.870;2023-07-24T07:58:10;5.30;;;3.73;;
9712;SDS011;4895;50.926;6.870;2023-07-24T08:00:35;7.70;;;4.20;;
9712;SDS011;4895;50.926;6.870;2023-07-24T08:03:03;7.73;;;4.63;;
9712;SDS011;4895;50.926;6.870;2023-07-24T08:05:28;6.50;;;3.90;;
9712;SDS011;4895;50.926;6.870;2023-07-24T08:07:53;9.27;;;3.93;;
9712;SDS011;4895;50.926;6.870;2023-07-24T08:10:19;7.10;;;4.00;;
9712;SDS011;4895;50.926;6.870;2023-07-24T08:12:44;12.13;;;3.90;;
9712;SDS011;4895;50.926;6.870;2023-07-24T08:15:09;5.50;;;3.70;;
9712;SDS011;4895;50.926;6.870;2023-07-24T08:17:35;6.30;;;4.13;;
9712;SDS011;4895;50.926;6.870;2023-07-24T08:20:00;7.20;;;4.43;;
9712;SDS011;4895;50.926;6.870;2023-07-24T08:22:25;6.37;;;4.23;;
9712;SDS011;4895;50.926;6.870;2023-07-24T08:24:51;5.13;;;3.70;;
9712;SDS011;4895;50.926;6.870;2023-07-24T08:27:16;7.40;;;4.37;;
9712;SDS011;4895;50.926;6.870;2023-07-24T08:29:42;8.97;;;4.03;;
9712;SDS011;4895;50.926;6.870;2023-07-24T08:32:07;8.23;;;4.13;;
9712;SDS011;4895;50.926;6.870;2023-07-24T08:34:34;9.77;;;4.50;;
9712;SDS011;4895;50.926;6.870;2023-07-24T08:36:59;7.27;;;3.93;;
9712;SDS011;4895;50.926;6.870;2023-07-24T08:39:24;7.83;;;3.67;;
9712;SDS011;4895;50.926;6.870;2023-07-24T08:41:49;6.63;;;4.43;;
9712;SDS011;4895;50.926;6.870;2023-07-24T08:44:15;8.23;;;4.60;;
9712;SDS011;4895;50.926;6.870;2023-07-24T08:46:41;8.40;;;4.40;;
9712;SDS011;4895;50.926;6.870;2023-07-24T08:49:13;8.97;;;3.97;;
9712;SDS011;4895;50.926;6.870;2023-07-24T08:51:42;5.80;;;3.87;;
9712;SDS011;4895;50.926;6.870;2023-07-24T08:54:09;7.03;;;4.67;;
9712;SDS011;4895;50.926;6.870;2023-07-24T08:56:38;10.07;;;4.00;;
9712;SDS011;4895;50.926;6.870;2023-07-24T08:59:07;6.30;;;4.17;;
9712;SDS011;4895;50.926;6.870;2023-07-24T09:01:33;5.60;;;3.53;;
9712;SDS011;4895;50.926;6.870;2023-07-24T09:03:58;5.97;;;3.93;;
9712;SDS011;4895;50.926;6.870;2023-07-24T09:06:25;4.67;;;3.07;;
9712;SDS011;4895;50.926;6.870;2023-07-24T09:08:53;10.30;;;3.57;;
9712;SDS011;4895;50.926;6.870;2023-07-24T09:11:18;5.90;;;3.83;;
9712;SDS011;4895;50.926;6.870;2023-07-24T09:13:44;5.37;;;3.20;;
9712;SDS011;4895;50.926;6.870;2023-07-24T09:16:10;5.67;;;3.27;;
9712;SDS011;4895;50.926;6.870;2023-07-24T09:18:46;6.27;;;3.77;;
9712;SDS011;4895;50.926;6.870;2023-07-24T09:21:11;9.43;;;3.60;;
9712;SDS011;4895;50.926;6.870;2023-07-24T09:23:39;6.47;;;3.80;;
9712;SDS011;4895;50.926;6.870;2023-07-24T09:26:06;6.23;;;3.70;;
9712;SDS011;4895;50.926;6.870;2023-07-24T09:28:32;5.33;;;3.20;;
9712;SDS011;4895;50.926;6.870;2023-07-24T09:30:58;6.17;;;3.30;;
9712;SDS011;4895;50.926;6.870;2023-07-24T09:33:38;5.60;;;2.97;;
9712;SDS011;4895;50.926;6.870;2023-07-24T09:36:05;4.00;;;2.90;;
9712;SDS011;4895;50.926;6.870;2023-07-24T09:38:34;4.87;;;3.10;;
9712;SDS011;4895;50.926;6.870;2023-07-24T09:41:01;4.90;;;3.00;;
9712;SDS011;4895;50.926;6.870;2023-07-24T09:43:27;4.27;;;2.93;;
9712;SDS011;4895;50.926;6.870;2023-07-24T09:45:53;6.10;;;3.57;;
9712;SDS011;4895;50.926;6.870;2023-07-24T09:48:20;5.63;;;3.33;;
9712;SDS011;4895;50.926;6.870;2023-07-24T09:50:48;4.73;;;3.23;;
9712;SDS011;4895;50.926;6.870;2023-07-24T09:53:36;7.37;;;2.93;;
9712;SDS011;4895;50.926;6.870;2023-07-24T09:56:05;5.50;;;3.70;;
9712;SDS011;4895;50.926;6.870;2023-07-24T09:58:33;6.47;;;3.80;;
9712;SDS011;4895;50.926;6.870;2023-07-24T10:01:00;3.80;;;2.80;;
9712;SDS011;4895;50.926;6.870;2023-07-24T10:03:28;7.10;;;3.67;;
9712;SDS011;4895;50.926;6.870;2023-07-24T10:05:53;6.77;;;4.13;;
9712;SDS011;4895;50.926;6.870;2023-07-24T10:08:19;5.27;;;3.63;;
9712;SDS011;4895;50.926;6.870;2023-07-24T10:10:44;5.17;;;3.03;;
9712;SDS011;4895;50.926;6.870;2023-07-24T10:13:10;9.40;;;3.30;;
9712;SDS011;4895;50.926;6.870;2023-07-24T10:15:38;5.87;;;2.97;;
9712;SDS011;4895;50.926;6.870;2023-07-24T10:18:04;8.53;;;3.70;;
9712;SDS011;4895;50.926;6.870;2023-07-24T10:20:34;5.10;;;3.47;;
9712;SDS011;4895;50.926;6.870;2023-07-24T10:23:00;6.43;;;3.97;;
9712;SDS011;4895;50.926;6.870;2023-07-24T10:25:33;5.17;;;3.47;;
9712;SDS011;4895;50.926;6.870;2023-07-24T10:28:01;5.93;;;3.70;;
9712;SDS011;4895;50.926;6.870;2023-07-24T10:30:32;6.40;;;3.53;;
9712;SDS011;4895;50.926;6.870;2023-07-24T10:33:05;5.10;;;2.90;;
9712;SDS011;4895;50.926;6.870;2023-07-24T10:35:38;6.17;;;3.40;;
9712;SDS011;4895;50.926;6.870;2023-07-24T10:38:04;6.63;;;3.10;;
9712;SDS011;4895;50.926;6.870;2023-07-24T10:40:30;5.63;;;3.03;;
9712;SDS011;4895;50.926;6.870;2023-07-24T10:42:59;5.40;;;3.80;;
9712;SDS011;4895;50.926;6.870;2023-07-24T10:45:25;7.97;;;3.30;;
9712;SDS011;4895;50.926;6.870;2023-07-24T10:47:51;8.80;;;4.47;;
9712;SDS011;4895;50.926;6.870;2023-07-24T10:50:17;5.90;;;3.67;;
9712;SDS011;4895;50.926;6.870;2023-07-24T10:52:42;4.60;;;3.20;;
9712;SDS011;4895;50.926;6.870;2023-07-24T10:55:07;4.80;;;3.20;;
9712;SDS011;4895;50.926;6.870;2023-07-24T10:57:33;6.70;;;3.83;;
9712;SDS011;4895;50.926;6.870;2023-07-24T10:59:59;4.53;;;3.23;;
9712;SDS011;4895;50.926;6.870;2023-07-24T11:02:24;8.83;;;3.57;;
9712;SDS011;4895;50.926;6.870;2023-07-24T11:04:50;4.20;;;3.17;;
9712;SDS011;4895;50.926;6.870;2023-07-24T11:07:15;3.83;;;3.10;;
9712;SDS011;4895;50.926;6.870;2023-07-24T11:09:40;4.70;;;2.97;;
9712;SDS011;4895;50.926;6.870;2023-07-24T11:12:12;4.97;;;3.07;;
9712;SDS011;4895;50.926;6.870;2023-07-24T11:14:49;7.20;;;3.10;;
9712;SDS011;4895;50.926;6.870;2023-07-24T11:17:15;5.20;;;3.30;;
9712;SDS011;4895;50.926;6.870;2023-07-24T11:19:40;5.63;;;3.27;;
9712;SDS011;4895;50.926;6.870;2023-07-24T11:22:06;5.17;;;3.60;;
9712;SDS011;4895;50.926;6.870;2023-07-24T11:24:32;4.30;;;3.40;;
9712;SDS011;4895;50.926;6.870;2023-07-24T11:26:57;5.60;;;3.50;;
9712;SDS011;4895;50.926;6.870;2023-07-24T11:29:23;5.43;;;3.27;;
9712;SDS011;4895;50.926;6.870;2023-07-24T11:31:53;5.70;;;3.53;;
9712;SDS011;4895;50.926;6.870;2023-07-24T11:34:19;5.90;;;3.77;;
9712;SDS011;4895;50.926;6.870;2023-07-24T11:36:45;6.23;;;3.50;;
9712;SDS011;4895;50.926;6.870;2023-07-24T11:39:10;13.80;;;4.30;;
9712;SDS011;4895;50.926;6.870;2023-07-24T11:41:36;10.03;;;4.00;;
9712;SDS011;4895;50.926;6.870;2023-07-24T11:44:01;14.03;;;3.67;;
9712;SDS011;4895;50.926;6.870;2023-07-24T11:46:28;10.43;;;4.10;;
9712;SDS011;4895;50.926;6.870;2023-07-24T11:48:57;7.93;;;3.53;;
9712;SDS011;4895;50.926;6.870;2023-07-24T11:51:22;5.63;;;2.57;;
9712;SDS011;4895;50.926;6.870;2023-07-24T11:53:51;6.37;;;2.80;;
9712;SDS011;4895;50.926;6.870;2023-07-24T11:56:16;3.30;;;2.13;;
9712;SDS011;4895;50.926;6.870;2023-07-24T11:58:42;2.80;;;1.73;;
9712;SDS011;4895;50.926;6.870;2023-07-24T12:01:08;3.50;;;2.03;;
9712;SDS011;4895;50.926;6.870;2023-07-24T12:03:33;3.90;;;2.67;;
9712;SDS011;4895;50.926;6.870;2023-07-24T12:05:58;3.27;;;2.10;;
9712;SDS011;4895;50.926;6.870;2023-07-24T12:08:31;4.00;;;2.70;;
9712;SDS011;4895;50.926;6.870;2023-07-24T12:10:59;7.80;;;2.70;;
9712;SDS011;4895;50.926;6.870;2023-07-24T12:13:25;5.93;;;3.10;;
9712;SDS011;4895;50.926;6.870;2023-07-24T12:15:50;4.67;;;2.50;;
9712;SDS011;4895;50.926;6.870;2023-07-24T12:18:16;7.90;;;3.33;;
9712;SDS011;4895;50.926;6.870;2023-07-24T12:20:41;10.13;;;2.90;;
9712;SDS011;4895;50.926;6.870;2023-07-24T12:23:06;7.50;;;3.83;;
9712;SDS011;4895;50.926;6.870;2023-07-24T12:25:32;5.00;;;2.87;;
9712;SDS011;4895;50.926;6.870;2023-07-24T12:27:57;7.23;;;3.10;;
9712;SDS011;4895;50.926;6.870;2023-07-24T12:30:22;4.27;;;2.83;;
9712;SDS011;4895;50.926;6.870;2023-07-24T12:32:48;4.90;;;3.20;;
9712;SDS011;4895;50.926;6.870;2023-07-24T12:35:13;5.97;;;3.40;;
9712;SDS011;4895;50.926;6.870;2023-07-24T12:37:38;5.43;;;2.77;;
9712;SDS011;4895;50.926;6.870;2023-07-24T12:40:04;4.97;;;2.47;;
9712;SDS011;4895;50.926;6.870;2023-07-24T12:42:30;5.10;;;2.90;;
9712;SDS011;4895;50.926;6.870;2023-07-24T12:44:55;4.17;;;2.60;;
9712;SDS011;4895;50.926;6.870;2023-07-24T12:47:21;3.30;;;2.20;;
9712;SDS011;4895;50.926;6.870;2023-07-24T12:49:47;6.23;;;3.10;;
9712;SDS011;4895;50.926;6.870;2023-07-24T12:52:12;4.57;;;2.60;;
9712;SDS011;4895;50.926;6.870;2023-07-24T12:54:37;5.00;;;2.93;;
9712;SDS011;4895;50.926;6.870;2023-07-24T12:57:03;6.53;;;2.80;;
9712;SDS011;4895;50.926;6.870;2023-07-24T12:59:28;4.23;;;2.60;;
9712;SDS011;4895;50.926;6.870;2023-07-24T13:01:54;4.43;;;2.60;;
9712;SDS011;4895;50.926;6.870;2023-07-24T13:04:19;6.00;;;3.27;;
9712;SDS011;4895;50.926;6.870;2023-07-24T13:06:45;10.83;;;2.77;;
9712;SDS011;4895;50.926;6.870;2023-07-24T13:09:10;3.57;;;2.60;;
9712;SDS011;4895;50.926;6.870;2023-07-24T13:11:36;3.20;;;2.50;;
9712;SDS011;4895;50.926;6.870;2023-07-24T13:14:01;4.70;;;2.50;;
9712;SDS011;4895;50.926;6.870;2023-07-24T13:16:26;4.47;;;2.80;;
9712;SDS011;4895;50.926;6.870;2023-07-24T13:18:52;5.97;;;2.60;;
9712;SDS011;4895;50.926;6.870;2023-07-24T13:21:17;3.83;;;2.10;;
9712;SDS011;4895;50.926;6.870;2023-07-24T13:23:42;4.53;;;2.37;;
9712;SDS011;4895;50.926;6.870;2023-07-24T13:26:08;3.53;;;2.43;;
9712;SDS011;4895;50.926;6.870;2023-07-24T13:28:35;4.40;;;2.47;;
9712;SDS011;4895;50.926;6.870;2023-07-24T13:31:10;2.97;;;2.00;;
9712;SDS011;4895;50.926;6.870;2023-07-24T13:33:39;2.50;;;1.90;;
9712;SDS011;4895;50.926;6.870;2023-07-24T13:36:05;3.60;;;2.20;;
9712;SDS011;4895;50.926;6.870;2023-07-24T13:38:30;6.67;;;2.60;;
9712;SDS011;4895;50.926;6.870;2023-07-24T13:40:56;4.13;;;2.10;;
9712;SDS011;4895;50.926;6.870;2023-07-24T13:43:21;3.00;;;1.60;;
9712;SDS011;4895;50.926;6.870;2023-07-24T13:45:46;2.77;;;2.10;;
9712;SDS011;4895;50.926;6.870;2023-07-24T13:48:11;4.00;;;2.00;;
9712;SDS011;4895;50.926;6.870;2023-07-24T13:50:37;4.90;;;1.87;;
9712;SDS011;4895;50.926;6.870;2023-07-24T13:53:02;3.53;;;2.40;;
9712;SDS011;4895;50.926;6.870;2023-07-24T13:55:27;2.77;;;2.10;;
9712;SDS011;4895;50.926;6.870;2023-07-24T13:57:53;7.73;;;2.93;;
9712;SDS011;4895;50.926;6.870;2023-07-24T14:00:18;6.00;;;2.50;;
9712;SDS011;4895;50.926;6.870;2023-07-24T14:02:43;3.70;;;2.10;;
9712;SDS011;4895;50.926;6.870;2023-07-24T14:05:08;4.07;;;2.00;;
9712;SDS011;4895;50.926;6.870;2023-07-24T14:07:34;5.10;;;2.10;;
9712;SDS011;4895;50.926;6.870;2023-07-24T14:09:59;3.40;;;2.13;;
9712;SDS011;4895;50.926;6.870;2023-07-24T14:12:24;2.70;;;1.80;;
9712;SDS011;4895;50.926;6.870;2023-07-24T14:14:49;3.40;;;1.70;;
9712;SDS011;4895;50.926;6.870;2023-07-24T14:17:15;2.53;;;1.60;;
9712;SDS011;4895;50.926;6.870;2023-07-24T14:19:40;4.50;;;2.00;;
9712;SDS011;4895;50.926;6.870;2023-07-24T14:22:05;1.90;;;1.40;;
9712;SDS011;4895;50.926;6.870;2023-07-24T14:24:31;3.07;;;1.70;;
9712;SDS011;4895;50.926;6.870;2023-07-24T14:26:56;3.97;;;2.00;;
9712;SDS011;4895;50.926;6.870;2023-07-24T14:29:21;3.40;;;1.77;;
9712;SDS011;4895;50.926;6.870;2023-07-24T14:31:47;4.77;;;1.90;;
9712;SDS011;4895;50.926;6.870;2023-07-24T14:34:12;2.90;;;2.07;;
9712;SDS011;4895;50.926;6.870;2023-07-24T14:36:40;3.73;;;2.20;;
9712;SDS011;4895;50.926;6.870;2023-07-24T14:39:05;3.60;;;1.90;;
9712;SDS011;4895;50.926;6.870;2023-07-24T14:41:31;3.00;;;1.77;;
9712;SDS011;4895;50.926;6.870;2023-07-24T14:43:56;4.20;;;1.60;;
9712;SDS011;4895;50.926;6.870;2023-07-24T14:46:22;3.40;;;2.10;;
9712;SDS011;4895;50.926;6.870;2023-07-24T14:48:47;4.10;;;2.10;;
9712;SDS011;4895;50.926;6.870;2023-07-24T14:51:12;6.60;;;2.10;;
9712;SDS011;4895;50.926;6.870;2023-07-24T14:53:38;3.60;;;2.30;;
9712;SDS011;4895;50.926;6.870;2023-07-24T14:56:03;3.00;;;2.10;;
9712;SDS011;4895;50.926;6.870;2023-07-24T14:58:29;5.20;;;2.60;;
9712;SDS011;4895;50.926;6.870;2023-07-24T15:00:54;3.80;;;1.80;;
9712;SDS011;4895;50.926;6.870;2023-07-24T15:03:19;4.63;;;2.57;;
9712;SDS011;4895;50.926;6.870;2023-07-24T15:05:44;3.60;;;2.33;;
9712;SDS011;4895;50.926;6.870;2023-07-24T15:08:10;2.57;;;1.87;;
9712;SDS011;4895;50.926;6.870;2023-07-24T15:10:35;3.60;;;1.80;;